createdAt,value
2019-06-07T00:00:39.209Z,19.94
2019-06-07T00:03:01.172Z,19.89
2019-06-07T00:05:28.242Z,19.83
2019-06-07T00:08:07.152Z,19.77
2019-06-07T00:10:37.027Z,19.72
2019-06-07T00:12:56.042Z,19.69
2019-06-07T00:15:28.803Z,19.65
2019-06-07T00:17:52.124Z,19.61
2019-06-07T00:20:23.456Z,19.58
2019-06-07T00:22:48.496Z,19.57
2019-06-07T00:25:20.266Z,19.52
2019-06-07T00:27:44.648Z,19.51
2019-06-07T00:30:40.096Z,19.48
2019-06-07T00:32:41.325Z,19.45
2019-06-07T00:35:09.141Z,19.41
2019-06-07T00:37:36.486Z,19.39
2019-06-07T00:40:14.225Z,19.36
2019-06-07T00:42:33.545Z,19.32
2019-06-07T00:45:01.779Z,19.27
2019-06-07T00:47:28.877Z,19.23
2019-06-07T00:49:55.919Z,19.20
2019-06-07T00:53:11.626Z,19.17
2019-06-07T00:54:51.980Z,19.18
2019-06-07T00:57:19.869Z,19.20
2019-06-07T00:59:48.186Z,19.22
2019-06-07T01:02:16.691Z,19.21
2019-06-07T01:04:44.254Z,19.20
2019-06-07T01:07:11.325Z,19.16
2019-06-07T01:09:41.174Z,19.15
2019-06-07T01:12:08.273Z,19.12
2019-06-07T01:14:35.353Z,19.09
2019-06-07T01:17:27.566Z,19.06
2019-06-07T01:19:42.717Z,19.06
2019-06-07T01:22:09.785Z,19.07
2019-06-07T01:24:36.863Z,19.06
2019-06-07T01:27:03.979Z,19.06
2019-06-07T01:29:31.341Z,19.04
2019-06-07T01:31:58.528Z,19.01
2019-06-07T01:34:26.903Z,18.97
2019-06-07T01:36:54.232Z,18.94
2019-06-07T01:39:24.078Z,18.91
2019-06-07T01:41:50.283Z,18.87
2019-06-07T01:44:18.563Z,18.86
2019-06-07T01:46:46.339Z,18.82
2019-06-07T01:49:13.403Z,18.78
2019-06-07T01:51:40.492Z,18.76
2019-06-07T01:54:49.268Z,18.75
2019-06-07T01:56:36.578Z,18.70
2019-06-07T01:59:03.650Z,18.68
2019-06-07T02:01:35.375Z,18.66
2019-06-07T02:04:00.850Z,18.66
2019-06-07T02:06:32.035Z,18.62
2019-06-07T02:08:56.936Z,18.60
2019-06-07T02:11:25.988Z,18.58
2019-06-07T02:13:52.975Z,18.56
2019-06-07T02:16:21.702Z,18.55
2019-06-07T02:19:01.040Z,18.52
2019-06-07T02:21:17.948Z,18.49
2019-06-07T02:23:45.027Z,18.42
2019-06-07T02:26:12.107Z,18.40
2019-06-07T02:28:45.675Z,18.35
2019-06-07T02:31:08.166Z,18.33
2019-06-07T02:33:40.355Z,18.31
2019-06-07T02:36:04.224Z,18.32
2019-06-07T02:38:37.052Z,18.36
2019-06-07T02:41:00.372Z,18.37
2019-06-07T02:43:32.449Z,18.35
2019-06-07T02:45:56.511Z,18.35
2019-06-07T02:48:26.489Z,18.38
2019-06-07T02:50:52.673Z,18.39
2019-06-07T02:53:19.776Z,18.42
2019-06-07T02:56:34.125Z,18.45
2019-06-07T02:58:15.943Z,18.47
2019-06-07T03:01:06.158Z,18.53
2019-06-07T03:03:16.200Z,18.57
2019-06-07T03:05:44.172Z,18.60
2019-06-07T03:08:13.077Z,18.64
2019-06-07T03:10:42.979Z,18.67
2019-06-07T03:13:11.375Z,18.67
2019-06-07T03:15:49.296Z,18.70
2019-06-07T03:18:36.214Z,18.76
2019-06-07T03:21:05.668Z,18.83
2019-06-07T03:23:34.393Z,18.87
2019-06-07T03:26:03.639Z,18.89
2019-06-07T03:28:35.583Z,18.91
2019-06-07T03:31:02.623Z,18.94
2019-06-07T03:33:32.392Z,18.94
2019-06-07T03:35:58.323Z,18.97
2019-06-07T03:38:27.567Z,18.96
2019-06-07T03:40:54.373Z,18.96
2019-06-07T03:43:21.491Z,18.94
2019-06-07T03:45:48.588Z,18.98
2019-06-07T03:48:15.671Z,19.03
2019-06-07T03:50:42.748Z,19.05
2019-06-07T03:53:09.826Z,19.09
2019-06-07T03:55:39.072Z,19.15
2019-06-07T04:00:37.367Z,19.24
2019-06-07T04:03:03.872Z,19.30
2019-06-07T04:05:32.791Z,19.37
2019-06-07T04:08:00.292Z,19.42
2019-06-07T04:10:49.556Z,19.46
2019-06-07T04:12:56.360Z,19.50
2019-06-07T04:15:23.436Z,19.55
2019-06-07T04:18:01.912Z,19.59
2019-06-07T04:20:19.472Z,19.62
2019-06-07T04:22:46.546Z,19.68
2019-06-07T04:25:13.920Z,19.70
2019-06-07T04:27:41.333Z,19.73
2019-06-07T04:30:09.286Z,19.77
2019-06-07T04:32:39.467Z,19.81
2019-06-07T04:35:05.492Z,19.88
2019-06-07T04:37:33.509Z,19.93
2019-06-07T04:40:02.255Z,19.96
2019-06-07T04:42:34.556Z,19.98
2019-06-07T04:45:00.482Z,20.01
2019-06-07T04:47:29.679Z,20.05
2019-06-07T04:49:59.613Z,20.08
2019-06-07T04:52:29.932Z,20.12
2019-06-07T04:54:57.517Z,20.11
2019-06-07T04:57:24.584Z,20.13
2019-06-07T05:00:11.854Z,20.11
2019-06-07T05:02:20.647Z,20.13
2019-06-07T05:04:47.768Z,20.12
2019-06-07T05:07:14.888Z,20.14
2019-06-07T05:09:43.356Z,20.16
2019-06-07T05:12:10.583Z,20.19
2019-06-07T05:14:39.972Z,20.24
2019-06-07T05:17:06.648Z,20.28
2019-06-07T05:19:38.101Z,20.32
2019-06-07T05:22:05.040Z,20.40
2019-06-07T05:24:37.688Z,20.47
2019-06-07T05:27:00.782Z,20.54
2019-06-07T05:29:27.865Z,20.62
2019-06-07T05:31:55.348Z,20.70
2019-06-07T05:34:22.431Z,20.78
2019-06-07T05:37:10.482Z,20.82
2019-06-07T05:39:18.467Z,20.88
2019-06-07T05:41:45.538Z,20.93
2019-06-07T05:44:14.936Z,20.98
2019-06-07T05:46:46.702Z,21.03
2019-06-07T05:49:10.577Z,21.07
2019-06-07T05:51:41.569Z,21.11
2019-06-07T05:54:06.626Z,21.15
2019-06-07T05:56:35.721Z,21.16
2019-06-07T05:59:02.707Z,21.17
2019-06-07T06:01:56.641Z,21.21
2019-06-07T06:03:58.759Z,21.26
2019-06-07T06:06:25.819Z,21.33
2019-06-07T06:09:11.012Z,21.40
2019-06-07T06:11:21.903Z,21.47
2019-06-07T06:14:05.654Z,21.52
2019-06-07T06:16:17.965Z,21.57
2019-06-07T06:18:47.114Z,21.62
2019-06-07T06:21:19.356Z,21.69
2019-06-07T06:23:45.838Z,21.74
2019-06-07T06:26:12.003Z,21.81
2019-06-07T06:28:40.112Z,21.86
2019-06-07T06:31:07.395Z,21.92
2019-06-07T06:33:35.040Z,22.02
2019-06-07T06:36:02.349Z,22.10
2019-06-07T06:38:29.404Z,22.19
2019-06-07T06:41:14.390Z,22.29
2019-06-07T06:43:25.484Z,22.39
2019-06-07T06:45:52.559Z,22.47
2019-06-07T06:48:19.797Z,22.57
2019-06-07T06:50:51.842Z,22.65
2019-06-07T06:53:15.878Z,22.75
2019-06-07T06:55:43.925Z,22.84
2019-06-07T06:58:11.817Z,22.93
2019-06-07T07:01:04.931Z,23.02
2019-06-07T07:06:24.179Z,23.30
2019-06-07T07:08:27.664Z,23.37
2019-06-07T07:10:55.259Z,23.47
2019-06-07T07:13:22.618Z,23.59
2019-06-07T07:15:55.208Z,23.68
2019-06-07T07:18:18.722Z,23.76
2019-06-07T07:20:47.713Z,23.84
2019-06-07T07:23:14.788Z,23.92
2019-06-07T07:25:43.511Z,23.97
2019-06-07T07:28:10.960Z,24.02
2019-06-07T07:30:44.776Z,24.11
2019-06-07T07:33:12.234Z,24.22
2019-06-07T07:35:39.376Z,24.30
2019-06-07T07:38:08.272Z,24.36
2019-06-07T07:40:56.913Z,24.43
2019-06-07T07:43:04.494Z,24.48
2019-06-07T07:45:31.571Z,24.50
2019-06-07T07:48:14.735Z,24.55
2019-06-07T07:50:27.624Z,24.61
2019-06-07T07:53:00.113Z,24.71
2019-06-07T07:55:24.043Z,24.83
2019-06-07T07:57:56.808Z,24.96
2019-06-07T08:02:53.156Z,25.25
2019-06-07T08:05:25.574Z,25.46
2019-06-07T08:07:53.092Z,25.46
2019-06-07T08:10:18.575Z,25.64
2019-06-07T08:13:08.932Z,25.72
2019-06-07T08:15:14.743Z,25.80
2019-06-07T08:17:41.867Z,25.81
2019-06-07T08:20:10.260Z,25.87
2019-06-07T08:22:37.823Z,25.85
2019-06-07T08:25:05.455Z,25.91
2019-06-07T08:27:32.749Z,25.93
2019-06-07T08:30:26.115Z,25.90
2019-06-07T08:32:28.930Z,25.90
2019-06-07T08:35:01.712Z,25.92
2019-06-07T08:38:13.544Z,26.07
2019-06-07T08:39:56.769Z,26.16
2019-06-07T08:42:36.529Z,26.32
2019-06-07T08:44:56.019Z,26.41
2019-06-07T08:47:22.426Z,26.46
2019-06-07T08:49:50.648Z,26.56
2019-06-07T08:52:18.656Z,26.67
2019-06-07T08:54:45.951Z,26.81
2019-06-07T08:57:21.159Z,26.95
2019-06-07T08:59:42.031Z,27.14
2019-06-07T09:02:22.959Z,27.21
2019-06-07T09:04:38.107Z,27.28
2019-06-07T09:07:19.001Z,27.28
2019-06-07T09:09:34.195Z,27.30
2019-06-07T09:12:08.169Z,27.35
2019-06-07T09:14:32.087Z,27.44
2019-06-07T09:17:04.427Z,27.51
2019-06-07T09:19:28.266Z,27.56
2019-06-07T09:22:01.551Z,27.57
2019-06-07T09:24:26.122Z,27.56
2019-06-07T09:26:53.387Z,27.52
2019-06-07T09:29:21.073Z,27.58
2019-06-07T09:31:53.385Z,27.68
2019-06-07T09:34:18.318Z,27.75
2019-06-07T09:36:46.601Z,27.81
2019-06-07T09:39:13.722Z,27.83
2019-06-07T09:41:49.329Z,27.87
2019-06-07T09:44:21.462Z,27.96
2019-06-07T09:46:38.735Z,27.98
2019-06-07T09:49:32.240Z,27.98
2019-06-07T09:51:34.778Z,27.94
2019-06-07T09:54:06.898Z,27.98
2019-06-07T09:56:30.853Z,28.06
2019-06-07T09:59:00.340Z,28.24
2019-06-07T10:01:26.895Z,28.32
2019-06-07T10:03:54.044Z,28.52
2019-06-07T10:06:21.931Z,28.76
2019-06-07T10:11:17.984Z,29.14
2019-06-07T10:13:45.055Z,29.16
2019-06-07T10:16:12.119Z,29.17
2019-06-07T10:18:39.233Z,29.12
2019-06-07T10:21:07.813Z,29.09
2019-06-07T10:23:35.288Z,29.08
2019-06-07T10:26:03.958Z,29.12
2019-06-07T10:28:31.124Z,29.23
2019-06-07T10:30:58.197Z,29.29
2019-06-07T10:33:25.291Z,29.41
2019-06-07T10:35:52.404Z,29.48
2019-06-07T10:38:19.481Z,29.47
2019-06-07T10:40:46.559Z,29.38
2019-06-07T10:43:14.599Z,29.22
2019-06-07T10:45:41.858Z,29.23
2019-06-07T10:48:09.946Z,29.36
2019-06-07T10:50:37.248Z,29.52
2019-06-07T10:53:04.400Z,29.68
2019-06-07T10:55:31.435Z,29.90
2019-06-07T10:58:00.306Z,30.13
2019-06-07T11:00:28.988Z,30.23
2019-06-07T11:02:56.070Z,30.12
2019-06-07T11:05:23.165Z,29.96
2019-06-07T11:07:50.302Z,29.87
2019-06-07T11:10:20.030Z,29.90
2019-06-07T11:12:46.652Z,29.93
2019-06-07T11:15:15.583Z,29.89
2019-06-07T11:17:42.655Z,29.94
2019-06-07T11:20:12.440Z,29.93
2019-06-07T11:22:39.618Z,29.74
2019-06-07T11:25:09.223Z,29.77
2019-06-07T11:27:38.550Z,29.74
2019-06-07T11:30:06.287Z,29.84
2019-06-07T11:32:33.505Z,29.90
2019-06-07T11:35:02.292Z,29.98
2019-06-07T11:37:29.358Z,30.06
2019-06-07T11:39:56.463Z,30.10
2019-06-07T11:42:23.557Z,30.16
2019-06-07T11:44:56.961Z,30.23
2019-06-07T11:47:19.939Z,30.31
2019-06-07T11:49:47.059Z,30.47
2019-06-07T11:52:17.830Z,30.59
2019-06-07T11:54:48.084Z,30.64
2019-06-07T11:57:15.144Z,30.58
2019-06-07T11:59:42.286Z,30.54
2019-06-07T12:02:09.354Z,30.54
2019-06-07T12:04:36.439Z,30.57
2019-06-07T12:07:03.553Z,30.50
2019-06-07T12:09:30.691Z,30.33
2019-06-07T12:11:57.765Z,30.30
2019-06-07T12:14:24.848Z,30.36
2019-06-07T12:16:51.941Z,30.48
2019-06-07T12:19:19.804Z,30.56
2019-06-07T12:21:46.987Z,30.63
2019-06-07T12:24:16.214Z,30.66
2019-06-07T12:26:43.476Z,30.56
2019-06-07T12:29:10.761Z,30.44
2019-06-07T12:31:37.907Z,30.30
2019-06-07T12:34:04.991Z,30.26
2019-06-07T12:36:32.078Z,30.13
2019-06-07T12:38:59.147Z,29.94
2019-06-07T12:41:26.222Z,29.81
2019-06-07T12:43:53.345Z,29.85
2019-06-07T12:46:26.064Z,30.03
2019-06-07T12:48:49.510Z,30.16
2019-06-07T12:51:17.225Z,30.21
2019-06-07T12:53:44.422Z,30.33
2019-06-07T12:56:11.505Z,30.34
2019-06-07T12:58:39.536Z,30.30
2019-06-07T13:01:06.862Z,30.45
2019-06-07T13:03:33.934Z,30.57
2019-06-07T13:06:03.000Z,30.69
2019-06-07T13:08:30.149Z,30.55
2019-06-07T13:11:13.620Z,30.39
2019-06-07T13:13:26.271Z,30.31
2019-06-07T13:15:53.372Z,30.24
2019-06-07T13:18:21.743Z,30.40
2019-06-07T13:20:49.415Z,30.58
2019-06-07T13:23:16.487Z,30.77
2019-06-07T13:25:46.563Z,30.80
2019-06-07T13:28:12.539Z,30.44
2019-06-07T13:30:39.603Z,30.51
2019-06-07T13:33:06.685Z,30.69
2019-06-07T13:35:33.767Z,30.60
2019-06-07T13:38:00.836Z,30.45
2019-06-07T13:40:28.679Z,30.58
2019-06-07T13:42:55.886Z,30.68
2019-06-07T13:45:24.307Z,30.73
2019-06-07T13:47:51.834Z,30.83
2019-06-07T13:50:19.671Z,30.65
2019-06-07T13:52:48.389Z,30.36
2019-06-07T13:55:15.848Z,30.18
2019-06-07T13:57:42.910Z,30.38
2019-06-07T14:00:11.471Z,30.49
2019-06-07T14:02:38.778Z,30.55
2019-06-07T14:05:06.560Z,30.65
2019-06-07T14:07:33.840Z,30.50
2019-06-07T14:10:00.909Z,30.40
2019-06-07T14:12:27.983Z,30.65
2019-06-07T14:14:55.053Z,30.83
2019-06-07T14:17:23.240Z,31.02
2019-06-07T14:19:50.429Z,31.05
2019-06-07T14:22:17.507Z,31.33
2019-06-07T14:24:44.581Z,31.59
2019-06-07T14:27:11.687Z,31.69
2019-06-07T14:29:39.155Z,31.76
2019-06-07T14:32:06.738Z,31.80
2019-06-07T14:34:34.120Z,31.67
2019-06-07T14:37:01.344Z,31.65
2019-06-07T14:39:29.476Z,31.83
2019-06-07T14:42:08.534Z,31.76
2019-06-07T14:44:27.699Z,31.70
2019-06-07T14:46:54.874Z,31.62
2019-06-07T14:49:22.014Z,31.72
2019-06-07T14:51:49.091Z,31.97
2019-06-07T14:54:16.170Z,32.14
2019-06-07T14:56:43.333Z,32.15
2019-06-07T14:59:10.458Z,32.17
2019-06-07T15:01:37.526Z,32.12
2019-06-07T15:04:04.824Z,32.10
2019-06-07T15:06:32.781Z,32.15
2019-06-07T15:08:59.977Z,32.29
2019-06-07T15:11:27.103Z,32.33
2019-06-07T15:13:54.177Z,32.30
2019-06-07T15:16:21.259Z,32.20
2019-06-07T15:18:48.351Z,31.96
2019-06-07T15:21:15.414Z,31.90
2019-06-07T15:23:42.479Z,31.97
2019-06-07T15:26:09.551Z,31.75
2019-06-07T15:28:38.494Z,31.67
2019-06-07T15:31:05.562Z,31.65
2019-06-07T15:33:34.241Z,31.56
2019-06-07T15:36:01.505Z,31.59
2019-06-07T15:38:29.191Z,31.61
2019-06-07T15:40:56.381Z,31.71
2019-06-07T15:43:23.568Z,31.99
2019-06-07T15:45:58.260Z,32.06
2019-06-07T15:48:25.324Z,32.05
2019-06-07T15:50:52.400Z,31.96
2019-06-07T15:53:19.490Z,31.86
2019-06-07T15:55:46.582Z,31.82
2019-06-07T15:58:13.662Z,31.81
2019-06-07T16:00:42.480Z,31.77
2019-06-07T16:03:09.726Z,31.69
2019-06-07T16:05:36.803Z,31.65
2019-06-07T16:08:04.379Z,31.72
2019-06-07T16:10:32.615Z,31.71
2019-06-07T16:13:00.955Z,31.77
2019-06-07T16:15:28.233Z,31.76
2019-06-07T16:17:55.320Z,31.63
2019-06-07T16:20:22.431Z,31.49
2019-06-07T16:22:49.551Z,31.36
2019-06-07T16:25:18.623Z,31.04
2019-06-07T16:27:45.725Z,30.89
2019-06-07T16:30:13.696Z,30.84
2019-06-07T16:32:41.822Z,30.93
2019-06-07T16:35:11.463Z,30.90
2019-06-07T16:37:38.749Z,30.86
2019-06-07T16:40:06.201Z,30.92
2019-06-07T16:42:33.279Z,31.01
2019-06-07T16:45:00.359Z,31.01
2019-06-07T16:47:28.536Z,31.19
2019-06-07T16:49:55.617Z,31.48
2019-06-07T16:52:22.690Z,31.44
2019-06-07T16:54:49.779Z,31.27
2019-06-07T16:57:16.859Z,30.98
2019-06-07T16:59:48.609Z,30.64
2019-06-07T17:02:12.939Z,30.42
2019-06-07T17:04:40.009Z,30.29
2019-06-07T17:07:07.101Z,30.09
2019-06-07T17:09:34.177Z,29.65
2019-06-07T17:12:01.250Z,29.34
2019-06-07T17:14:28.327Z,29.19
2019-06-07T17:16:55.405Z,28.99
2019-06-07T17:19:22.487Z,29.01
2019-06-07T17:21:49.670Z,28.99
2019-06-07T17:24:16.862Z,28.85
2019-06-07T17:26:43.949Z,28.87
2019-06-07T17:29:11.024Z,28.91
2019-06-07T17:31:38.102Z,28.89
2019-06-07T17:34:05.178Z,28.90
2019-06-07T17:36:32.266Z,28.85
2019-06-07T17:38:59.339Z,28.92
2019-06-07T17:41:26.456Z,29.01
2019-06-07T17:43:59.989Z,29.14
2019-06-07T17:46:22.527Z,29.25
2019-06-07T17:48:49.793Z,29.09
2019-06-07T17:51:16.877Z,28.94
2019-06-07T17:53:43.974Z,28.74
2019-06-07T17:56:11.039Z,28.57
2019-06-07T17:58:38.098Z,28.61
2019-06-07T18:01:05.184Z,28.63
2019-06-07T18:03:32.245Z,28.50
2019-06-07T18:06:01.553Z,28.51
2019-06-07T18:08:29.231Z,28.53
2019-06-07T18:10:56.308Z,28.48
2019-06-07T18:13:23.411Z,28.43
2019-06-07T18:15:53.982Z,28.28
2019-06-07T18:18:19.491Z,28.08
2019-06-07T18:20:47.192Z,27.85
2019-06-07T18:23:14.642Z,27.59
2019-06-07T18:25:41.918Z,27.39
2019-06-07T18:28:08.993Z,27.17
2019-06-07T18:30:36.258Z,26.92
2019-06-07T18:33:03.493Z,26.65
2019-06-07T18:35:30.600Z,26.41
2019-06-07T18:37:57.691Z,26.27
2019-06-07T18:40:24.787Z,26.23
2019-06-07T18:42:52.982Z,26.16
2019-06-07T18:45:20.375Z,25.97
2019-06-07T18:47:49.456Z,25.86
2019-06-07T18:50:16.890Z,25.74
2019-06-07T18:52:46.572Z,25.56
2019-06-07T18:55:14.684Z,25.48
2019-06-07T18:57:41.766Z,25.33
2019-06-07T19:00:10.335Z,25.21
2019-06-07T19:02:37.452Z,25.12
2019-06-07T19:05:05.381Z,25.06
2019-06-07T19:07:32.474Z,25.00
2019-06-07T19:09:59.572Z,24.94
2019-06-07T19:12:26.627Z,24.79
2019-06-07T19:14:53.717Z,24.58
2019-06-07T19:17:20.795Z,24.40
2019-06-07T19:19:47.900Z,24.28
2019-06-07T19:22:14.988Z,24.20
2019-06-07T19:24:42.062Z,24.13
2019-06-07T19:27:09.140Z,24.01
2019-06-07T19:29:36.236Z,23.88
2019-06-07T19:32:03.373Z,23.79
2019-06-07T19:34:30.424Z,23.67
2019-06-07T19:36:57.820Z,23.59
2019-06-07T19:39:26.123Z,23.57
2019-06-07T19:41:54.205Z,23.52
2019-06-07T19:44:21.283Z,23.50
2019-06-07T19:46:48.367Z,23.44
2019-06-07T19:49:15.473Z,23.36
2019-06-07T19:51:42.571Z,23.32
2019-06-07T19:54:09.662Z,23.29
2019-06-07T19:56:36.748Z,23.24
2019-06-07T19:59:04.286Z,23.17
2019-06-07T20:01:31.517Z,23.10
2019-06-07T20:03:59.947Z,23.03
2019-06-07T20:06:27.083Z,22.96
2019-06-07T20:08:54.367Z,22.91
2019-06-07T20:11:22.655Z,22.82
2019-06-07T20:13:49.747Z,22.74
2019-06-07T20:16:16.892Z,22.64
2019-06-07T20:18:44.005Z,22.58
2019-06-07T20:21:11.112Z,22.51
2019-06-07T20:23:38.235Z,22.44
2019-06-07T20:26:06.707Z,22.40
2019-06-07T20:28:33.923Z,22.39
2019-06-07T20:31:01.972Z,22.39
2019-06-07T20:33:29.124Z,22.34
2019-06-07T20:35:56.602Z,22.26
2019-06-07T20:38:23.799Z,22.12
2019-06-07T20:40:50.885Z,22.00
2019-06-07T20:43:17.979Z,21.92
2019-06-07T20:45:45.210Z,21.85
2019-06-07T20:48:12.294Z,21.79
2019-06-07T20:50:39.379Z,21.71
2019-06-07T20:53:07.190Z,21.65
2019-06-07T20:55:34.444Z,21.62
2019-06-07T20:58:03.567Z,21.59
2019-06-07T21:00:30.521Z,21.58
2019-06-07T21:02:58.872Z,21.56
2019-06-07T21:05:26.117Z,21.50
2019-06-07T21:07:53.204Z,21.45
2019-06-07T21:10:22.317Z,21.40
2019-06-07T21:12:49.396Z,21.38
2019-06-07T21:15:16.481Z,21.34
2019-06-07T21:17:43.578Z,21.30
2019-06-07T21:20:14.231Z,21.30
2019-06-07T21:22:39.656Z,21.28
2019-06-07T21:25:09.251Z,21.25
2019-06-07T21:27:36.749Z,21.20
2019-06-07T21:30:05.169Z,21.17
2019-06-07T21:32:32.241Z,21.14
2019-06-07T21:35:01.775Z,21.12
2019-06-07T21:37:29.000Z,21.09
2019-06-07T21:39:56.086Z,21.02
2019-06-07T21:42:23.235Z,20.94
2019-06-07T21:44:50.307Z,20.89
2019-06-07T21:47:17.392Z,20.85
2019-06-07T21:49:44.467Z,20.80
2019-06-07T21:52:12.665Z,20.77
2019-06-07T21:54:40.154Z,20.72
2019-06-07T21:57:07.215Z,20.71
2019-06-07T21:59:34.283Z,20.66
2019-06-07T22:02:01.369Z,20.60
2019-06-07T22:04:28.447Z,20.57
2019-06-07T22:06:55.534Z,20.54
2019-06-07T22:09:22.623Z,20.52
2019-06-07T22:11:49.707Z,20.49
2019-06-07T22:14:16.800Z,20.49
2019-06-07T22:16:43.881Z,20.47
2019-06-07T22:19:10.959Z,20.44
2019-06-07T22:21:38.034Z,20.39
2019-06-07T22:24:05.111Z,20.36
2019-06-07T22:26:32.238Z,20.35
2019-06-07T22:28:59.309Z,20.32
2019-06-07T22:31:26.393Z,20.27
2019-06-07T22:33:53.470Z,20.22
2019-06-07T22:36:20.557Z,20.20
2019-06-07T22:38:47.642Z,20.18
2019-06-07T22:41:15.931Z,20.18
2019-06-07T22:43:43.226Z,20.18
2019-06-07T22:46:13.000Z,20.17
2019-06-07T22:48:40.143Z,20.13
2019-06-07T22:51:09.409Z,20.09
2019-06-07T22:53:43.690Z,20.09
2019-06-07T22:56:34.828Z,20.09
2019-06-07T22:59:02.108Z,20.08
2019-06-07T23:01:29.187Z,20.08
2019-06-07T23:03:56.277Z,20.05
2019-06-07T23:06:23.365Z,20.04
2019-06-07T23:08:50.441Z,20.03
2019-06-07T23:11:17.519Z,20.00
2019-06-07T23:13:44.619Z,19.97
2019-06-07T23:16:11.708Z,19.94
2019-06-07T23:18:38.799Z,19.93
2019-06-07T23:21:05.875Z,19.88
2019-06-07T23:23:34.054Z,19.86
2019-06-07T23:26:01.134Z,19.83
2019-06-07T23:28:28.211Z,19.78
2019-06-07T23:30:55.300Z,19.77
2019-06-07T23:33:23.486Z,19.75
2019-06-07T23:35:50.569Z,19.73
2019-06-07T23:38:17.649Z,19.67
2019-06-07T23:40:44.715Z,19.60
2019-06-07T23:43:13.364Z,19.54
2019-06-07T23:45:40.582Z,19.45
2019-06-07T23:48:07.653Z,19.39
2019-06-07T23:50:34.742Z,19.37
2019-06-07T23:53:01.807Z,19.36
2019-06-07T23:55:28.884Z,19.31
2019-06-07T23:57:55.955Z,19.30
